sensor_id;sensor_type;location;lat;lon;timestamp;P1;durP1;ratioP1;P2;durP2;ratioP2
1837;SDS011;918;50.796;6.772;2023-10-19T00:00:44;8.23;;;7.60;;
1837;SDS011;918;50.796;6.772;2023-10-19T00:03:10;8.00;;;7.30;;
1837;SDS011;918;50.796;6.772;2023-10-19T00:05:36;7.90;;;7.20;;
1837;SDS011;918;50.796;6.772;2023-10-19T00:08:03;7.87;;;7.20;;
1837;SDS011;918;50.796;6.772;2023-10-19T00:10:38;7.70;;;7.20;;
1837;SDS011;918;50.796;6.772;2023-10-19T00:13:04;8.40;;;7.70;;
1837;SDS011;918;50.796;6.772;2023-10-19T00:15:37;7.50;;;7.00;;
1837;SDS011;918;50.796;6.772;2023-10-19T00:18:06;7.57;;;7.07;;
1837;SDS011;918;50.796;6.772;2023-10-19T00:20:53;8.43;;;7.23;;
1837;SDS011;918;50.796;6.772;2023-10-19T00:23:35;7.93;;;6.57;;
1837;SDS011;918;50.796;6.772;2023-10-19T00:26:01;8.47;;;7.83;;
1837;SDS011;918;50.796;6.772;2023-10-19T00:28:35;7.73;;;7.13;;
1837;SDS011;918;50.796;6.772;2023-10-19T00:31:03;8.00;;;7.40;;
1837;SDS011;918;50.796;6.772;2023-10-19T00:33:32;8.90;;;8.10;;
1837;SDS011;918;50.796;6.772;2023-10-19T00:35:59;7.53;;;7.00;;
1837;SDS011;918;50.796;6.772;2023-10-19T00:38:35;7.20;;;6.70;;
1837;SDS011;918;50.796;6.772;2023-10-19T00:41:01;7.97;;;7.30;;
1837;SDS011;918;50.796;6.772;2023-10-19T00:43:37;7.87;;;7.20;;
1837;SDS011;918;50.796;6.772;2023-10-19T00:46:13;7.63;;;7.03;;
1837;SDS011;918;50.796;6.772;2023-10-19T00:51:16;7.50;;;6.90;;
1837;SDS011;918;50.796;6.772;2023-10-19T00:54:42;8.57;;;7.77;;
1837;SDS011;918;50.796;6.772;2023-10-19T00:57:00;8.57;;;7.87;;
1837;SDS011;918;50.796;6.772;2023-10-19T00:59:32;8.43;;;7.73;;
1837;SDS011;918;50.796;6.772;2023-10-19T01:02:07;8.07;;;7.47;;
1837;SDS011;918;50.796;6.772;2023-10-19T01:04:44;8.83;;;8.13;;
1837;SDS011;918;50.796;6.772;2023-10-19T01:07:11;8.07;;;7.37;;
1837;SDS011;918;50.796;6.772;2023-10-19T01:09:40;8.27;;;7.57;;
1837;SDS011;918;50.796;6.772;2023-10-19T01:12:09;8.10;;;7.50;;
1837;SDS011;918;50.796;6.772;2023-10-19T01:15:05;7.20;;;6.57;;
1837;SDS011;918;50.796;6.772;2023-10-19T01:17:54;8.23;;;7.50;;
1837;SDS011;918;50.796;6.772;2023-10-19T01:20:22;8.43;;;7.63;;
1837;SDS011;918;50.796;6.772;2023-10-19T01:25:43;8.63;;;7.97;;
1837;SDS011;918;50.796;6.772;2023-10-19T01:30:53;8.20;;;7.60;;
1837;SDS011;918;50.796;6.772;2023-10-19T01:33:19;9.17;;;8.37;;
1837;SDS011;918;50.796;6.772;2023-10-19T01:35:45;8.40;;;7.70;;
1837;SDS011;918;50.796;6.772;2023-10-19T01:38:28;8.00;;;7.30;;
1837;SDS011;918;50.796;6.772;2023-10-19T01:40:57;7.80;;;7.30;;
1837;SDS011;918;50.796;6.772;2023-10-19T01:43:26;8.20;;;7.53;;
1837;SDS011;918;50.796;6.772;2023-10-19T01:45:59;8.50;;;7.90;;
1837;SDS011;918;50.796;6.772;2023-10-19T01:48:36;7.83;;;7.20;;
1837;SDS011;918;50.796;6.772;2023-10-19T01:51:09;8.83;;;8.13;;
1837;SDS011;918;50.796;6.772;2023-10-19T01:53:41;8.17;;;7.57;;
1837;SDS011;918;50.796;6.772;2023-10-19T01:56:10;8.00;;;7.40;;
1837;SDS011;918;50.796;6.772;2023-10-19T01:58:40;7.77;;;7.27;;
1837;SDS011;918;50.796;6.772;2023-10-19T02:01:06;8.10;;;7.37;;
1837;SDS011;918;50.796;6.772;2023-10-19T02:03:38;7.60;;;7.00;;
1837;SDS011;918;50.796;6.772;2023-10-19T02:06:07;8.27;;;7.57;;
1837;SDS011;918;50.796;6.772;2023-10-19T02:08:45;8.40;;;7.70;;
1837;SDS011;918;50.796;6.772;2023-10-19T02:11:13;9.60;;;8.70;;
1837;SDS011;918;50.796;6.772;2023-10-19T02:13:47;8.70;;;7.90;;
1837;SDS011;918;50.796;6.772;2023-10-19T02:16:14;9.50;;;8.80;;
1837;SDS011;918;50.796;6.772;2023-10-19T02:18:41;8.47;;;7.80;;
1837;SDS011;918;50.796;6.772;2023-10-19T02:21:08;8.97;;;8.20;;
1837;SDS011;918;50.796;6.772;2023-10-19T02:23:36;8.00;;;7.40;;
1837;SDS011;918;50.796;6.772;2023-10-19T02:26:02;8.17;;;7.57;;
1837;SDS011;918;50.796;6.772;2023-10-19T02:28:29;8.43;;;7.67;;
1837;SDS011;918;50.796;6.772;2023-10-19T02:30:58;7.57;;;7.07;;
1837;SDS011;918;50.796;6.772;2023-10-19T02:33:35;8.87;;;7.97;;
1837;SDS011;918;50.796;6.772;2023-10-19T02:36:01;9.03;;;8.37;;
1837;SDS011;918;50.796;6.772;2023-10-19T02:38:28;9.50;;;8.70;;
1837;SDS011;918;50.796;6.772;2023-10-19T02:40:54;7.40;;;6.80;;
1837;SDS011;918;50.796;6.772;2023-10-19T02:43:19;7.50;;;6.90;;
1837;SDS011;918;50.796;6.772;2023-10-19T02:45:45;7.53;;;6.87;;
1837;SDS011;918;50.796;6.772;2023-10-19T02:48:12;6.60;;;6.10;;
1837;SDS011;918;50.796;6.772;2023-10-19T02:50:38;6.47;;;6.07;;
1837;SDS011;918;50.796;6.772;2023-10-19T02:53:03;6.07;;;5.67;;
1837;SDS011;918;50.796;6.772;2023-10-19T02:55:29;6.57;;;6.10;;
1837;SDS011;918;50.796;6.772;2023-10-19T02:57:56;5.70;;;5.30;;
1837;SDS011;918;50.796;6.772;2023-10-19T03:00:24;6.70;;;5.67;;
1837;SDS011;918;50.796;6.772;2023-10-19T03:02:57;6.70;;;6.20;;
1837;SDS011;918;50.796;6.772;2023-10-19T03:05:24;6.23;;;5.30;;
1837;SDS011;918;50.796;6.772;2023-10-19T03:07:50;5.40;;;5.00;;
1837;SDS011;918;50.796;6.772;2023-10-19T03:10:17;5.90;;;5.47;;
1837;SDS011;918;50.796;6.772;2023-10-19T03:12:50;8.03;;;7.33;;
1837;SDS011;918;50.796;6.772;2023-10-19T03:15:16;6.43;;;5.93;;
1837;SDS011;918;50.796;6.772;2023-10-19T03:17:42;6.43;;;5.93;;
1837;SDS011;918;50.796;6.772;2023-10-19T03:20:08;9.23;;;8.53;;
1837;SDS011;918;50.796;6.772;2023-10-19T03:22:35;8.47;;;7.73;;
1837;SDS011;918;50.796;6.772;2023-10-19T03:25:01;8.90;;;7.53;;
1837;SDS011;918;50.796;6.772;2023-10-19T03:27:45;6.13;;;5.70;;
1837;SDS011;918;50.796;6.772;2023-10-19T03:30:10;7.10;;;6.13;;
1837;SDS011;918;50.796;6.772;2023-10-19T03:32:40;5.17;;;4.77;;
1837;SDS011;918;50.796;6.772;2023-10-19T03:35:06;5.00;;;4.70;;
1837;SDS011;918;50.796;6.772;2023-10-19T03:37:32;5.87;;;5.47;;
1837;SDS011;918;50.796;6.772;2023-10-19T03:40:00;4.80;;;4.40;;
1837;SDS011;918;50.796;6.772;2023-10-19T03:42:30;5.80;;;5.40;;
1837;SDS011;918;50.796;6.772;2023-10-19T03:44:59;4.80;;;4.40;;
1837;SDS011;918;50.796;6.772;2023-10-19T03:47:27;5.60;;;5.20;;
1837;SDS011;918;50.796;6.772;2023-10-19T03:50:03;5.03;;;4.63;;
1837;SDS011;918;50.796;6.772;2023-10-19T03:52:34;6.53;;;5.43;;
1837;SDS011;918;50.796;6.772;2023-10-19T03:55:02;4.80;;;4.37;;
1837;SDS011;918;50.796;6.772;2023-10-19T03:57:30;5.70;;;5.20;;
1837;SDS011;918;50.796;6.772;2023-10-19T03:59:55;5.57;;;5.13;;
1837;SDS011;918;50.796;6.772;2023-10-19T04:02:27;7.53;;;6.83;;
1837;SDS011;918;50.796;6.772;2023-10-19T04:05:00;6.93;;;6.33;;
1837;SDS011;918;50.796;6.772;2023-10-19T04:07:26;6.50;;;5.90;;
1837;SDS011;918;50.796;6.772;2023-10-19T04:09:53;6.40;;;5.90;;
1837;SDS011;918;50.796;6.772;2023-10-19T04:12:23;6.70;;;6.00;;
1837;SDS011;918;50.796;6.772;2023-10-19T04:14:48;6.17;;;5.70;;
1837;SDS011;918;50.796;6.772;2023-10-19T04:17:14;6.50;;;6.00;;
1837;SDS011;918;50.796;6.772;2023-10-19T04:19:39;6.03;;;5.53;;
1837;SDS011;918;50.796;6.772;2023-10-19T04:22:04;5.47;;;4.97;;
1837;SDS011;918;50.796;6.772;2023-10-19T04:24:29;5.43;;;5.03;;
1837;SDS011;918;50.796;6.772;2023-10-19T04:26:58;6.97;;;6.30;;
1837;SDS011;918;50.796;6.772;2023-10-19T04:29:24;6.73;;;6.20;;
1837;SDS011;918;50.796;6.772;2023-10-19T04:31:52;8.33;;;7.53;;
1837;SDS011;918;50.796;6.772;2023-10-19T04:34:19;7.47;;;6.77;;
1837;SDS011;918;50.796;6.772;2023-10-19T04:36:46;7.63;;;7.00;;
1837;SDS011;918;50.796;6.772;2023-10-19T04:39:12;6.93;;;6.30;;
1837;SDS011;918;50.796;6.772;2023-10-19T04:41:39;7.47;;;6.87;;
1837;SDS011;918;50.796;6.772;2023-10-19T04:44:05;7.90;;;7.30;;
1837;SDS011;918;50.796;6.772;2023-10-19T04:46:33;7.40;;;6.70;;
1837;SDS011;918;50.796;6.772;2023-10-19T04:48:58;7.73;;;7.10;;
1837;SDS011;918;50.796;6.772;2023-10-19T04:51:24;7.90;;;7.07;;
1837;SDS011;918;50.796;6.772;2023-10-19T04:53:50;8.50;;;7.73;;
1837;SDS011;918;50.796;6.772;2023-10-19T04:56:15;8.03;;;7.33;;
1837;SDS011;918;50.796;6.772;2023-10-19T04:58:40;7.73;;;7.03;;
1837;SDS011;918;50.796;6.772;2023-10-19T05:01:06;8.00;;;7.30;;
1837;SDS011;918;50.796;6.772;2023-10-19T05:03:31;8.40;;;7.70;;
1837;SDS011;918;50.796;6.772;2023-10-19T05:05:57;8.10;;;7.30;;
1837;SDS011;918;50.796;6.772;2023-10-19T05:08:23;8.27;;;7.47;;
1837;SDS011;918;50.796;6.772;2023-10-19T05:10:52;8.57;;;7.67;;
1837;SDS011;918;50.796;6.772;2023-10-19T05:13:19;8.40;;;7.77;;
1837;SDS011;918;50.796;6.772;2023-10-19T05:15:45;8.67;;;7.87;;
1837;SDS011;918;50.796;6.772;2023-10-19T05:18:10;10.17;;;7.67;;
1837;SDS011;918;50.796;6.772;2023-10-19T05:20:35;8.40;;;7.70;;
1837;SDS011;918;50.796;6.772;2023-10-19T05:23:05;7.60;;;6.80;;
1837;SDS011;918;50.796;6.772;2023-10-19T05:25:30;8.23;;;7.57;;
1837;SDS011;918;50.796;6.772;2023-10-19T05:27:56;9.80;;;9.00;;
1837;SDS011;918;50.796;6.772;2023-10-19T05:30:21;9.27;;;8.37;;
1837;SDS011;918;50.796;6.772;2023-10-19T05:32:47;7.50;;;6.80;;
1837;SDS011;918;50.796;6.772;2023-10-19T05:35:14;8.80;;;8.00;;
1837;SDS011;918;50.796;6.772;2023-10-19T05:37:47;8.00;;;7.30;;
1837;SDS011;918;50.796;6.772;2023-10-19T05:40:14;8.77;;;7.70;;
1837;SDS011;918;50.796;6.772;2023-10-19T05:42:40;8.60;;;7.80;;
1837;SDS011;918;50.796;6.772;2023-10-19T05:45:05;7.63;;;6.97;;
1837;SDS011;918;50.796;6.772;2023-10-19T05:47:31;9.50;;;8.53;;
1837;SDS011;918;50.796;6.772;2023-10-19T05:49:56;8.87;;;8.07;;
1837;SDS011;918;50.796;6.772;2023-10-19T05:52:22;8.40;;;7.70;;
1837;SDS011;918;50.796;6.772;2023-10-19T05:54:47;8.33;;;7.53;;
1837;SDS011;918;50.796;6.772;2023-10-19T05:57:14;8.87;;;7.83;;
1837;SDS011;918;50.796;6.772;2023-10-19T05:59:39;8.50;;;7.77;;
1837;SDS011;918;50.796;6.772;2023-10-19T06:02:05;9.13;;;7.60;;
1837;SDS011;918;50.796;6.772;2023-10-19T06:04:32;8.07;;;7.27;;
1837;SDS011;918;50.796;6.772;2023-10-19T06:06:58;8.60;;;7.80;;
1837;SDS011;918;50.796;6.772;2023-10-19T06:09:23;9.30;;;8.00;;
1837;SDS011;918;50.796;6.772;2023-10-19T06:11:54;7.47;;;6.77;;
1837;SDS011;918;50.796;6.772;2023-10-19T06:14:20;8.57;;;7.77;;
1837;SDS011;918;50.796;6.772;2023-10-19T06:16:45;9.20;;;8.50;;
1837;SDS011;918;50.796;6.772;2023-10-19T06:19:10;7.97;;;7.27;;
1837;SDS011;918;50.796;6.772;2023-10-19T06:21:35;8.70;;;7.93;;
1837;SDS011;918;50.796;6.772;2023-10-19T06:24:01;8.70;;;7.90;;
1837;SDS011;918;50.796;6.772;2023-10-19T06:26:27;8.40;;;7.60;;
1837;SDS011;918;50.796;6.772;2023-10-19T06:28:53;9.33;;;7.47;;
1837;SDS011;918;50.796;6.772;2023-10-19T06:31:23;8.10;;;7.30;;
1837;SDS011;918;50.796;6.772;2023-10-19T06:33:49;9.00;;;8.20;;
1837;SDS011;918;50.796;6.772;2023-10-19T06:36:14;8.93;;;8.10;;
1837;SDS011;918;50.796;6.772;2023-10-19T06:38:39;9.33;;;8.43;;
1837;SDS011;918;50.796;6.772;2023-10-19T06:41:11;8.70;;;7.80;;
1837;SDS011;918;50.796;6.772;2023-10-19T06:43:40;8.20;;;7.47;;
1837;SDS011;918;50.796;6.772;2023-10-19T06:46:06;8.83;;;7.93;;
1837;SDS011;918;50.796;6.772;2023-10-19T06:48:32;7.90;;;7.30;;
1837;SDS011;918;50.796;6.772;2023-10-19T06:50:57;7.97;;;7.27;;
1837;SDS011;918;50.796;6.772;2023-10-19T06:53:23;9.00;;;8.20;;
1837;SDS011;918;50.796;6.772;2023-10-19T06:55:48;8.40;;;7.70;;
1837;SDS011;918;50.796;6.772;2023-10-19T06:58:13;9.20;;;8.40;;
1837;SDS011;918;50.796;6.772;2023-10-19T07:00:39;8.60;;;7.80;;
1837;SDS011;918;50.796;6.772;2023-10-19T07:03:07;9.00;;;8.10;;
1837;SDS011;918;50.796;6.772;2023-10-19T07:05:33;8.03;;;7.43;;
1837;SDS011;918;50.796;6.772;2023-10-19T07:08:00;8.13;;;7.53;;
1837;SDS011;918;50.796;6.772;2023-10-19T07:10:27;9.40;;;7.80;;
1837;SDS011;918;50.796;6.772;2023-10-19T07:12:53;12.10;;;10.70;;
1837;SDS011;918;50.796;6.772;2023-10-19T07:15:19;11.03;;;9.30;;
1837;SDS011;918;50.796;6.772;2023-10-19T07:17:47;11.63;;;10.30;;
1837;SDS011;918;50.796;6.772;2023-10-19T07:20:13;10.13;;;9.30;;
1837;SDS011;918;50.796;6.772;2023-10-19T07:23:01;9.70;;;8.80;;
1837;SDS011;918;50.796;6.772;2023-10-19T07:25:46;9.23;;;8.23;;
1837;SDS011;918;50.796;6.772;2023-10-19T07:28:13;8.23;;;7.50;;
1837;SDS011;918;50.796;6.772;2023-10-19T07:30:40;9.00;;;8.10;;
1837;SDS011;918;50.796;6.772;2023-10-19T07:33:06;8.10;;;7.33;;
1837;SDS011;918;50.796;6.772;2023-10-19T07:35:35;9.10;;;7.60;;
1837;SDS011;918;50.796;6.772;2023-10-19T07:38:04;10.07;;;7.80;;
1837;SDS011;918;50.796;6.772;2023-10-19T07:40:30;9.87;;;7.73;;
1837;SDS011;918;50.796;6.772;2023-10-19T07:42:55;8.90;;;8.10;;
1837;SDS011;918;50.796;6.772;2023-10-19T07:45:21;9.60;;;8.13;;
1837;SDS011;918;50.796;6.772;2023-10-19T07:47:46;12.87;;;8.67;;
1837;SDS011;918;50.796;6.772;2023-10-19T07:50:12;9.43;;;8.53;;
1837;SDS011;918;50.796;6.772;2023-10-19T07:52:47;8.17;;;7.40;;
1837;SDS011;918;50.796;6.772;2023-10-19T07:55:14;9.20;;;8.30;;
1837;SDS011;918;50.796;6.772;2023-10-19T07:57:43;9.03;;;8.13;;
1837;SDS011;918;50.796;6.772;2023-10-19T08:00:09;9.10;;;8.30;;
1837;SDS011;918;50.796;6.772;2023-10-19T08:02:38;9.20;;;8.50;;
1837;SDS011;918;50.796;6.772;2023-10-19T08:05:05;10.80;;;8.43;;
1837;SDS011;918;50.796;6.772;2023-10-19T08:07:31;8.83;;;8.13;;
1837;SDS011;918;50.796;6.772;2023-10-19T08:09:57;9.73;;;8.37;;
1837;SDS011;918;50.796;6.772;2023-10-19T08:12:24;8.20;;;7.50;;
1837;SDS011;918;50.796;6.772;2023-10-19T08:14:51;7.80;;;7.10;;
1837;SDS011;918;50.796;6.772;2023-10-19T08:17:16;8.00;;;7.30;;
1837;SDS011;918;50.796;6.772;2023-10-19T08:19:42;8.40;;;7.17;;
1837;SDS011;918;50.796;6.772;2023-10-19T08:22:07;6.73;;;6.17;;
1837;SDS011;918;50.796;6.772;2023-10-19T08:24:32;6.87;;;6.17;;
1837;SDS011;918;50.796;6.772;2023-10-19T08:27:00;8.50;;;7.70;;
1837;SDS011;918;50.796;6.772;2023-10-19T08:29:25;5.83;;;5.33;;
1837;SDS011;918;50.796;6.772;2023-10-19T08:31:51;6.10;;;5.50;;
1837;SDS011;918;50.796;6.772;2023-10-19T08:34:16;6.60;;;4.13;;
1837;SDS011;918;50.796;6.772;2023-10-19T08:36:42;8.43;;;4.60;;
1837;SDS011;918;50.796;6.772;2023-10-19T08:39:08;6.60;;;4.03;;
1837;SDS011;918;50.796;6.772;2023-10-19T08:41:37;5.37;;;3.80;;
1837;SDS011;918;50.796;6.772;2023-10-19T08:44:03;4.97;;;3.53;;
1837;SDS011;918;50.796;6.772;2023-10-19T08:46:41;5.10;;;3.80;;
1837;SDS011;918;50.796;6.772;2023-10-19T08:49:13;3.83;;;3.20;;
1837;SDS011;918;50.796;6.772;2023-10-19T08:51:39;6.77;;;3.50;;
1837;SDS011;918;50.796;6.772;2023-10-19T08:54:05;4.10;;;3.70;;
1837;SDS011;918;50.796;6.772;2023-10-19T08:56:31;3.20;;;2.90;;
1837;SDS011;918;50.796;6.772;2023-10-19T08:58:58;8.00;;;3.20;;
1837;SDS011;918;50.796;6.772;2023-10-19T09:01:25;3.20;;;2.90;;
1837;SDS011;918;50.796;6.772;2023-10-19T09:03:52;6.80;;;3.47;;
1837;SDS011;918;50.796;6.772;2023-10-19T09:06:18;3.47;;;2.80;;
1837;SDS011;918;50.796;6.772;2023-10-19T09:08:46;5.33;;;2.67;;
1837;SDS011;918;50.796;6.772;2023-10-19T09:11:13;5.20;;;2.63;;
1837;SDS011;918;50.796;6.772;2023-10-19T09:13:45;7.10;;;3.00;;
1837;SDS011;918;50.796;6.772;2023-10-19T09:16:16;4.37;;;2.33;;
1837;SDS011;918;50.796;6.772;2023-10-19T09:18:43;2.63;;;2.40;;
1837;SDS011;918;50.796;6.772;2023-10-19T09:21:10;2.93;;;2.67;;
1837;SDS011;918;50.796;6.772;2023-10-19T09:23:46;4.00;;;2.80;;
1837;SDS011;918;50.796;6.772;2023-10-19T09:26:12;6.37;;;2.87;;
1837;SDS011;918;50.796;6.772;2023-10-19T09:28:37;6.33;;;2.97;;
1837;SDS011;918;50.796;6.772;2023-10-19T09:31:04;5.20;;;3.70;;
1837;SDS011;918;50.796;6.772;2023-10-19T09:33:31;5.40;;;2.67;;
1837;SDS011;918;50.796;6.772;2023-10-19T09:35:59;6.70;;;2.27;;
1837;SDS011;918;50.796;6.772;2023-10-19T09:38:26;4.07;;;2.60;;
1837;SDS011;918;50.796;6.772;2023-10-19T09:40:52;6.93;;;3.23;;
1837;SDS011;918;50.796;6.772;2023-10-19T09:43:22;6.27;;;3.50;;
1837;SDS011;918;50.796;6.772;2023-10-19T09:45:51;6.93;;;3.03;;
1837;SDS011;918;50.796;6.772;2023-10-19T09:48:18;6.10;;;3.57;;
1837;SDS011;918;50.796;6.772;2023-10-19T09:50:45;6.97;;;3.57;;
1837;SDS011;918;50.796;6.772;2023-10-19T09:53:19;6.00;;;2.00;;
1837;SDS011;918;50.796;6.772;2023-10-19T09:55:46;4.77;;;2.00;;
1837;SDS011;918;50.796;6.772;2023-10-19T09:58:17;8.53;;;2.60;;
1837;SDS011;918;50.796;6.772;2023-10-19T10:00:45;7.30;;;3.40;;
1837;SDS011;918;50.796;6.772;2023-10-19T10:06:07;6.87;;;2.47;;
1837;SDS011;918;50.796;6.772;2023-10-19T10:08:34;3.73;;;2.30;;
1837;SDS011;918;50.796;6.772;2023-10-19T10:11:12;4.27;;;2.13;;
1837;SDS011;918;50.796;6.772;2023-10-19T10:13:49;5.00;;;2.00;;
1837;SDS011;918;50.796;6.772;2023-10-19T10:16:16;4.63;;;2.03;;
1837;SDS011;918;50.796;6.772;2023-10-19T10:18:42;6.50;;;2.63;;
1837;SDS011;918;50.796;6.772;2023-10-19T10:21:11;7.23;;;2.57;;
1837;SDS011;918;50.796;6.772;2023-10-19T10:23:46;8.00;;;2.50;;
1837;SDS011;918;50.796;6.772;2023-10-19T10:26:13;5.10;;;1.90;;
1837;SDS011;918;50.796;6.772;2023-10-19T10:28:39;4.50;;;2.17;;
1837;SDS011;918;50.796;6.772;2023-10-19T10:31:12;5.30;;;2.30;;
1837;SDS011;918;50.796;6.772;2023-10-19T10:36:12;9.20;;;2.63;;
1837;SDS011;918;50.796;6.772;2023-10-19T10:38:39;4.40;;;2.40;;
1837;SDS011;918;50.796;6.772;2023-10-19T10:41:05;4.87;;;2.37;;
1837;SDS011;918;50.796;6.772;2023-10-19T10:43:46;5.20;;;2.30;;
1837;SDS011;918;50.796;6.772;2023-10-19T10:46:13;3.33;;;2.17;;
1837;SDS011;918;50.796;6.772;2023-10-19T10:48:41;4.47;;;1.97;;
1837;SDS011;918;50.796;6.772;2023-10-19T10:51:19;3.80;;;1.80;;
1837;SDS011;918;50.796;6.772;2023-10-19T10:53:49;3.23;;;2.20;;
1837;SDS011;918;50.796;6.772;2023-10-19T10:56:15;7.90;;;2.53;;
1837;SDS011;918;50.796;6.772;2023-10-19T10:58:41;4.40;;;2.80;;
1837;SDS011;918;50.796;6.772;2023-10-19T11:01:06;6.77;;;1.97;;
1837;SDS011;918;50.796;6.772;2023-10-19T11:03:32;4.63;;;2.57;;
1837;SDS011;918;50.796;6.772;2023-10-19T11:06:06;9.13;;;2.03;;
1837;SDS011;918;50.796;6.772;2023-10-19T11:08:35;8.03;;;2.80;;
1837;SDS011;918;50.796;6.772;2023-10-19T11:11:08;3.17;;;1.70;;
1837;SDS011;918;50.796;6.772;2023-10-19T11:13:37;5.07;;;2.20;;
1837;SDS011;918;50.796;6.772;2023-10-19T11:16:06;4.07;;;2.17;;
1837;SDS011;918;50.796;6.772;2023-10-19T11:18:36;5.27;;;2.20;;
1837;SDS011;918;50.796;6.772;2023-10-19T11:21:09;6.77;;;2.10;;
1837;SDS011;918;50.796;6.772;2023-10-19T11:23:48;4.40;;;2.20;;
1837;SDS011;918;50.796;6.772;2023-10-19T11:26:19;4.93;;;2.00;;
1837;SDS011;918;50.796;6.772;2023-10-19T11:28:45;5.67;;;2.60;;
1837;SDS011;918;50.796;6.772;2023-10-19T11:31:17;4.53;;;2.10;;
1837;SDS011;918;50.796;6.772;2023-10-19T11:33:44;4.50;;;1.90;;
1837;SDS011;918;50.796;6.772;2023-10-19T11:36:11;5.87;;;2.40;;
1837;SDS011;918;50.796;6.772;2023-10-19T11:38:43;3.13;;;2.53;;
1837;SDS011;918;50.796;6.772;2023-10-19T11:41:09;4.77;;;2.07;;
1837;SDS011;918;50.796;6.772;2023-10-19T11:43:35;4.20;;;2.20;;
1837;SDS011;918;50.796;6.772;2023-10-19T11:46:01;4.60;;;2.60;;
1837;SDS011;918;50.796;6.772;2023-10-19T11:48:29;5.70;;;3.00;;
1837;SDS011;918;50.796;6.772;2023-10-19T11:50:55;4.73;;;2.03;;
1837;SDS011;918;50.796;6.772;2023-10-19T11:53:21;4.93;;;2.67;;
1837;SDS011;918;50.796;6.772;2023-10-19T11:55:46;6.83;;;2.50;;
1837;SDS011;918;50.796;6.772;2023-10-19T11:58:13;2.77;;;2.50;;
1837;SDS011;918;50.796;6.772;2023-10-19T12:00:39;4.33;;;1.93;;
1837;SDS011;918;50.796;6.772;2023-10-19T12:03:06;3.70;;;2.13;;
1837;SDS011;918;50.796;6.772;2023-10-19T12:05:31;6.67;;;1.90;;
1837;SDS011;918;50.796;6.772;2023-10-19T12:07:57;4.93;;;2.30;;
1837;SDS011;918;50.796;6.772;2023-10-19T12:10:22;8.70;;;2.33;;
1837;SDS011;918;50.796;6.772;2023-10-19T12:12:54;5.73;;;2.20;;
1837;SDS011;918;50.796;6.772;2023-10-19T12:15:21;5.73;;;2.07;;
1837;SDS011;918;50.796;6.772;2023-10-19T12:17:47;4.40;;;2.10;;
1837;SDS011;918;50.796;6.772;2023-10-19T12:20:14;3.90;;;1.97;;
1837;SDS011;918;50.796;6.772;2023-10-19T12:22:39;4.20;;;2.03;;
1837;SDS011;918;50.796;6.772;2023-10-19T12:25:05;3.87;;;2.10;;
1837;SDS011;918;50.796;6.772;2023-10-19T12:27:31;6.30;;;2.23;;
1837;SDS011;918;50.796;6.772;2023-10-19T12:29:56;4.93;;;2.07;;
1837;SDS011;918;50.796;6.772;2023-10-19T12:32:24;4.43;;;2.20;;
1837;SDS011;918;50.796;6.772;2023-10-19T12:34:49;4.57;;;2.57;;
1837;SDS011;918;50.796;6.772;2023-10-19T12:37:18;7.30;;;2.07;;
1837;SDS011;918;50.796;6.772;2023-10-19T12:39:43;3.90;;;1.90;;
1837;SDS011;918;50.796;6.772;2023-10-19T12:42:16;7.07;;;2.60;;
1837;SDS011;918;50.796;6.772;2023-10-19T12:44:41;4.23;;;2.50;;
1837;SDS011;918;50.796;6.772;2023-10-19T12:47:08;2.57;;;2.37;;
1837;SDS011;918;50.796;6.772;2023-10-19T12:49:41;4.23;;;2.10;;
1837;SDS011;918;50.796;6.772;2023-10-19T12:52:07;3.60;;;2.03;;
1837;SDS011;918;50.796;6.772;2023-10-19T12:54:35;4.70;;;2.50;;
1837;SDS011;918;50.796;6.772;2023-10-19T12:57:02;3.00;;;2.70;;
1837;SDS011;918;50.796;6.772;2023-10-19T12:59:29;4.30;;;2.30;;
1837;SDS011;918;50.796;6.772;2023-10-19T13:01:54;3.53;;;3.23;;
1837;SDS011;918;50.796;6.772;2023-10-19T13:04:23;3.50;;;3.17;;
1837;SDS011;918;50.796;6.772;2023-10-19T13:06:49;5.57;;;3.27;;
1837;SDS011;918;50.796;6.772;2023-10-19T13:09:15;5.10;;;2.83;;
1837;SDS011;918;50.796;6.772;2023-10-19T13:11:46;2.93;;;2.67;;
1837;SDS011;918;50.796;6.772;2023-10-19T13:14:14;3.80;;;2.80;;
1837;SDS011;918;50.796;6.772;2023-10-19T13:16:40;9.20;;;2.67;;
1837;SDS011;918;50.796;6.772;2023-10-19T13:19:05;3.20;;;2.57;;
1837;SDS011;918;50.796;6.772;2023-10-19T13:21:37;3.60;;;2.33;;
1837;SDS011;918;50.796;6.772;2023-10-19T13:24:03;5.80;;;3.10;;
1837;SDS011;918;50.796;6.772;2023-10-19T13:26:29;4.37;;;3.10;;
1837;SDS011;918;50.796;6.772;2023-10-19T13:28:54;5.90;;;3.10;;
1837;SDS011;918;50.796;6.772;2023-10-19T13:31:20;4.37;;;3.43;;
1837;SDS011;918;50.796;6.772;2023-10-19T13:33:47;5.87;;;4.20;;
1837;SDS011;918;50.796;6.772;2023-10-19T13:36:12;6.73;;;5.00;;
1837;SDS011;918;50.796;6.772;2023-10-19T13:38:38;5.63;;;4.90;;
1837;SDS011;918;50.796;6.772;2023-10-19T13:41:06;6.03;;;4.33;;
1837;SDS011;918;50.796;6.772;2023-10-19T13:43:35;7.60;;;4.60;;
1837;SDS011;918;50.796;6.772;2023-10-19T13:46:00;5.13;;;4.63;;
1837;SDS011;918;50.796;6.772;2023-10-19T13:48:27;10.03;;;4.97;;
1837;SDS011;918;50.796;6.772;2023-10-19T13:50:52;5.40;;;4.40;;
1837;SDS011;918;50.796;6.772;2023-10-19T13:53:25;5.23;;;3.80;;
1837;SDS011;918;50.796;6.772;2023-10-19T13:55:51;6.77;;;3.97;;
1837;SDS011;918;50.796;6.772;2023-10-19T13:58:16;6.17;;;3.70;;
1837;SDS011;918;50.796;6.772;2023-10-19T14:00:41;8.20;;;3.83;;
1837;SDS011;918;50.796;6.772;2023-10-19T14:03:08;5.37;;;3.10;;
1837;SDS011;918;50.796;6.772;2023-10-19T14:05:40;5.67;;;3.70;;
1837;SDS011;918;50.796;6.772;2023-10-19T14:08:13;3.87;;;2.87;;
1837;SDS011;918;50.796;6.772;2023-10-19T14:10:38;4.70;;;3.30;;
1837;SDS011;918;50.796;6.772;2023-10-19T14:13:06;4.20;;;3.47;;
1837;SDS011;918;50.796;6.772;2023-10-19T14:15:32;3.90;;;2.47;;
1837;SDS011;918;50.796;6.772;2023-10-19T14:17:58;3.20;;;3.00;;
1837;SDS011;918;50.796;6.772;2023-10-19T14:20:24;3.80;;;3.40;;
1837;SDS011;918;50.796;6.772;2023-10-19T14:22:49;5.53;;;4.07;;
1837;SDS011;918;50.796;6.772;2023-10-19T14:25:15;4.37;;;3.63;;
1837;SDS011;918;50.796;6.772;2023-10-19T14:27:44;6.00;;;3.87;;
1837;SDS011;918;50.796;6.772;2023-10-19T14:30:12;3.80;;;3.50;;
1837;SDS011;918;50.796;6.772;2023-10-19T14:32:56;5.10;;;4.10;;
1837;SDS011;918;50.796;6.772;2023-10-19T14:35:23;7.17;;;3.67;;
1837;SDS011;918;50.796;6.772;2023-10-19T14:37:49;6.97;;;3.70;;
1837;SDS011;918;50.796;6.772;2023-10-19T14:40:20;6.93;;;3.77;;
1837;SDS011;918;50.796;6.772;2023-10-19T14:42:46;6.70;;;3.60;;
1837;SDS011;918;50.796;6.772;2023-10-19T14:45:13;4.17;;;3.77;;
1837;SDS011;918;50.796;6.772;2023-10-19T14:47:41;3.90;;;3.60;;
1837;SDS011;918;50.796;6.772;2023-10-19T14:50:07;4.63;;;3.50;;
1837;SDS011;918;50.796;6.772;2023-10-19T14:52:36;8.50;;;5.73;;
1837;SDS011;918;50.796;6.772;2023-10-19T14:55:01;6.23;;;5.60;;
1837;SDS011;918;50.796;6.772;2023-10-19T14:57:27;8.20;;;5.63;;
1837;SDS011;918;50.796;6.772;2023-10-19T14:59:52;7.17;;;4.90;;
1837;SDS011;918;50.796;6.772;2023-10-19T15:02:18;6.37;;;5.10;;
1837;SDS011;918;50.796;6.772;2023-10-19T15:04:48;7.17;;;6.47;;
1837;SDS011;918;50.796;6.772;2023-10-19T15:07:13;6.53;;;5.03;;
1837;SDS011;918;50.796;6.772;2023-10-19T15:09:38;5.80;;;5.20;;
1837;SDS011;918;50.796;6.772;2023-10-19T15:12:04;5.27;;;4.37;;
1837;SDS011;918;50.796;6.772;2023-10-19T15:14:29;6.90;;;5.00;;
1837;SDS011;918;50.796;6.772;2023-10-19T15:16:54;6.10;;;5.20;;
1837;SDS011;918;50.796;6.772;2023-10-19T15:19:20;5.10;;;4.67;;
1837;SDS011;918;50.796;6.772;2023-10-19T15:21:45;7.63;;;4.17;;
1837;SDS011;918;50.796;6.772;2023-10-19T15:24:11;4.23;;;3.80;;
1837;SDS011;918;50.796;6.772;2023-10-19T15:26:41;6.20;;;4.30;;
1837;SDS011;918;50.796;6.772;2023-10-19T15:29:07;4.50;;;4.20;;
1837;SDS011;918;50.796;6.772;2023-10-19T15:31:32;5.67;;;4.73;;
1837;SDS011;918;50.796;6.772;2023-10-19T15:33:58;5.37;;;4.87;;
1837;SDS011;918;50.796;6.772;2023-10-19T15:36:23;5.03;;;4.60;;
1837;SDS011;918;50.796;6.772;2023-10-19T15:38:48;4.50;;;4.10;;
1837;SDS011;918;50.796;6.772;2023-10-19T15:41:15;8.70;;;5.20;;
1837;SDS011;918;50.796;6.772;2023-10-19T15:43:41;4.77;;;4.20;;
1837;SDS011;918;50.796;6.772;2023-10-19T15:46:06;4.73;;;4.20;;
1837;SDS011;918;50.796;6.772;2023-10-19T15:48:32;4.50;;;4.07;;